Time;durP1;ratioP1;P1;durP2;ratioP2;P2;SDS_P1;SDS_P2;PMS_P1;PMS_P2;Temp;Humidity;BMP_temperature;BMP_pressure;BME280_temperature;BME280_humidity;BME280_pressure;Samples;Min_cycle;Max_cycle;Signal;HPM_P1;HPM_P2
2021/01/22 00:00:53;;;;;;;58.48;29.30;;;;;;;-1.63;96.05;100701.34;1754764;82;21273;-81
2021/01/22 00:03:59;;;;;;;46.35;25.90;;;;;;;-1.60;96.21;100697.11;1753737;82;21875;-82
2021/01/22 00:07:05;;;;;;;56.13;31.25;;;;;;;-1.54;96.36;100691.41;1754725;82;21277;-82
2021/01/22 00:10:10;;;;;;;51.83;27.87;;;;;;;-1.51;96.42;100695.72;1754930;82;21273;-82
2021/01/22 00:13:16;;;;;;;56.28;29.75;;;;;;;-1.50;96.41;100686.26;1753756;82;21230;-82
2021/01/22 00:16:22;;;;;;;54.03;30.12;;;;;;;-1.49;96.36;100690.66;1753265;82;21329;-82
2021/01/22 00:19:28;;;;;;;48.40;27.60;;;;;;;-1.44;96.42;100684.55;1754903;82;21321;-82
2021/01/22 00:22:34;;;;;;;55.45;30.05;;;;;;;-1.39;96.42;100680.25;1753974;82;21308;-82
2021/01/22 00:25:40;;;;;;;60.10;31.60;;;;;;;-1.39;96.44;100679.77;1754837;82;21846;-82
2021/01/22 00:28:46;;;;;;;52.00;27.95;;;;;;;-1.33;96.53;100679.39;1754334;82;21235;-82
2021/01/22 00:31:51;;;;;;;54.33;27.77;;;;;;;-1.24;96.70;100677.12;1754509;82;21317;-82
2021/01/22 00:34:57;;;;;;;43.80;26.27;;;;;;;-1.16;96.79;100670.34;1754789;82;21305;-82
2021/01/22 00:38:03;;;;;;;45.50;25.85;;;;;;;-1.10;96.86;100666.41;1753423;82;21357;-81
2021/01/22 00:41:09;;;;;;;59.63;31.73;;;;;;;-1.07;96.84;100671.60;1753374;82;21270;-82
2021/01/22 00:44:16;;;;;;;57.08;27.27;;;;;;;-1.10;96.79;100663.72;1753927;82;21736;-82
2021/01/22 00:47:22;;;;;;;40.48;24.60;;;;;;;-1.09;96.89;100660.94;1754727;82;22144;-82
2021/01/22 00:50:27;;;;;;;35.88;20.70;;;;;;;-1.04;97.07;100658.83;1754701;82;21258;-82
2021/01/22 00:53:34;;;;;;;42.48;24.15;;;;;;;-0.98;97.36;100654.93;1753520;82;21333;-82
2021/01/22 00:56:40;;;;;;;43.85;20.48;;;;;;;-0.93;97.72;100652.83;1754851;82;21640;-82
2021/01/22 00:59:45;;;;;;;46.25;24.92;;;;;;;-0.90;98.05;100661.16;1753833;82;21226;-82
2021/01/22 01:02:52;;;;;;;46.15;26.42;;;;;;;-0.88;98.35;100653.40;1728354;82;21863;-82
2021/01/22 01:06:00;;;;;;;39.53;23.10;;;;;;;-0.84;98.65;100656.77;1754743;82;21167;-82
2021/01/22 01:09:07;;;;;;;49.45;27.45;;;;;;;-0.81;98.93;100648.02;1754861;82;21470;-82
2021/01/22 01:12:15;;;;;;;43.33;24.30;;;;;;;-0.75;99.14;100647.24;1753544;82;21820;-82
2021/01/22 01:15:38;;;;;;;28.38;17.17;;;;;;;-0.70;99.36;100646.02;1753386;81;21188;-82
2021/01/22 01:18:43;;;;;;;29.15;18.57;;;;;;;-0.58;99.61;100655.12;1753890;82;21171;-82
2021/01/22 01:21:48;;;;;;;28.10;16.37;;;;;;;-0.47;99.82;100651.29;1754674;82;21285;-82
2021/01/22 01:24:53;;;;;;;31.00;19.27;;;;;;;-0.41;99.88;100644.66;1754916;82;21751;-82
2021/01/22 01:27:59;;;;;;;39.92;24.05;;;;;;;-0.38;99.90;100647.13;1754854;82;21230;-82
2021/01/22 01:31:04;;;;;;;37.17;22.07;;;;;;;-0.36;99.92;100646.08;1744322;82;21310;-82
2021/01/22 01:34:10;;;;;;;38.88;23.87;;;;;;;-0.33;99.92;100641.86;1729562;83;21180;-82
2021/01/22 01:37:16;;;;;;;42.38;24.87;;;;;;;-0.32;99.95;100639.55;1729416;83;21279;-82
2021/01/22 01:40:22;;;;;;;37.80;21.97;;;;;;;-0.31;100.00;100641.75;1730845;83;21809;-82
2021/01/22 01:43:28;;;;;;;33.18;20.15;;;;;;;-0.26;100.00;100633.77;1730102;83;21916;-82
2021/01/22 01:46:32;;;;;;;30.37;19.87;;;;;;;-0.24;100.00;100630.11;1730663;83;21212;-82
2021/01/22 01:49:38;;;;;;;27.87;17.35;;;;;;;-0.25;100.00;100627.91;1729556;83;21200;-82
2021/01/22 01:52:44;;;;;;;39.88;25.12;;;;;;;-0.22;100.00;100633.58;1730451;83;21307;-82
2021/01/22 01:55:48;;;;;;;27.30;18.12;;;;;;;-0.20;100.00;100624.92;1730955;83;21272;-82
2021/01/22 01:58:54;;;;;;;28.00;18.35;;;;;;;-0.15;100.00;100626.34;1730803;83;21188;-82
2021/01/22 02:02:00;;;;;;;28.87;19.10;;;;;;;-0.07;100.00;100619.13;1730859;83;21283;-82
2021/01/22 02:05:06;;;;;;;29.12;18.48;;;;;;;-0.01;100.00;100621.40;1730726;83;21149;-82
2021/01/22 02:08:12;;;;;;;29.72;20.08;;;;;;;0.01;100.00;100620.83;1730262;83;21180;-82
2021/01/22 02:11:17;;;;;;;36.95;24.47;;;;;;;0.01;100.00;100616.80;1730555;83;21169;-82
2021/01/22 02:14:22;;;;;;;41.13;24.30;;;;;;;0.02;100.00;100621.20;1729292;83;21247;-82
2021/01/22 02:17:29;;;;;;;34.55;22.15;;;;;;;0.11;100.00;100615.70;1729430;83;21868;-82
2021/01/22 02:21:00;;;;;;;34.60;21.40;;;;;;;0.18;100.00;100622.38;1730683;83;21280;-82
2021/01/22 02:24:25;;;;;;;40.73;20.82;;;;;;;0.25;100.00;100625.06;1730015;83;21231;-82
2021/01/22 02:27:31;;;;;;;29.20;19.92;;;;;;;0.32;100.00;100626.84;1730607;83;21323;-82
2021/01/22 02:30:37;;;;;;;32.23;21.70;;;;;;;0.33;100.00;100625.88;1730278;83;21354;-82
2021/01/22 02:33:44;;;;;;;31.02;20.68;;;;;;;0.39;100.00;100626.83;1730820;83;21208;-82
2021/01/22 02:36:51;;;;;;;33.58;19.65;;;;;;;0.42;100.00;100623.42;1715063;83;21806;-82
2021/01/22 02:39:58;;;;;;;37.05;23.20;;;;;;;0.43;100.00;100611.72;1730976;83;21208;-82
2021/01/22 02:43:03;;;;;;;26.00;17.23;;;;;;;0.44;100.00;100615.27;1730361;83;21326;-82
2021/01/22 02:46:08;;;;;;;22.17;14.73;;;;;;;0.43;100.00;100609.02;1730049;83;21761;-82
2021/01/22 02:49:14;;;;;;;37.23;19.52;;;;;;;0.43;100.00;100618.92;1730269;83;21832;-82
2021/01/22 02:52:20;;;;;;;27.90;19.02;;;;;;;0.45;100.00;100625.05;1730773;83;21234;-82
2021/01/22 02:55:26;;;;;;;26.20;16.52;;;;;;;0.41;100.00;100616.80;1729796;83;21323;-82
2021/01/22 02:58:48;;;;;;;24.07;15.85;;;;;;;0.40;100.00;100623.16;1731128;83;21212;-82
2021/01/22 03:02:25;;;;;;;29.95;18.25;;;;;;;0.41;100.00;100618.16;1730986;83;21211;-82
2021/01/22 03:05:32;;;;;;;25.27;16.20;;;;;;;0.46;100.00;100617.35;1731096;83;21271;-82
2021/01/22 03:08:38;;;;;;;27.95;17.20;;;;;;;0.47;100.00;100613.23;1730029;83;21215;-82
2021/01/22 03:11:43;;;;;;;24.18;14.75;;;;;;;0.46;100.00;100607.45;1715016;83;21263;-82
2021/01/22 03:14:48;;;;;;;24.05;15.10;;;;;;;0.47;100.00;100602.47;1729515;83;21204;-82
2021/01/22 03:17:54;;;;;;;24.50;16.70;;;;;;;0.46;100.00;100597.17;1730453;83;21228;-82
2021/01/22 03:20:59;;;;;;;22.40;15.13;;;;;;;0.47;100.00;100597.54;1730787;83;21690;-82
2021/01/22 03:24:06;;;;;;;18.65;12.95;;;;;;;0.49;100.00;100597.83;1729730;83;21323;-82
2021/01/22 03:27:12;;;;;;;19.02;14.25;;;;;;;0.52;100.00;100596.77;1730811;83;21172;-82
2021/01/22 03:30:19;;;;;;;20.82;14.50;;;;;;;0.53;100.00;100595.80;1729463;83;21216;-82
2021/01/22 03:33:24;;;;;;;18.90;12.82;;;;;;;0.55;100.00;100599.23;1741665;82;21294;-81
2021/01/22 03:36:30;;;;;;;16.62;11.68;;;;;;;0.56;100.00;100602.78;1754872;82;21223;-82
2021/01/22 03:39:36;;;;;;;19.98;13.60;;;;;;;0.54;100.00;100598.86;1754960;82;21753;-82
2021/01/22 03:42:41;;;;;;;20.97;14.20;;;;;;;0.53;100.00;100589.06;1754515;82;21253;-82
2021/01/22 03:45:47;;;;;;;16.97;12.43;;;;;;;0.57;100.00;100593.28;1753474;82;21361;-82
2021/01/22 03:48:53;;;;;;;19.40;13.45;;;;;;;0.65;100.00;100590.89;1753425;82;21349;-82
2021/01/22 03:51:58;;;;;;;16.10;11.33;;;;;;;0.68;100.00;100592.52;1753402;82;21341;-82
2021/01/22 03:55:05;;;;;;;18.37;12.85;;;;;;;0.70;100.00;100594.61;1753321;82;22092;-82
2021/01/22 03:58:10;;;;;;;16.55;12.47;;;;;;;0.72;100.00;100588.17;1754832;82;21618;-82
2021/01/22 04:01:15;;;;;;;15.65;11.75;;;;;;;0.79;100.00;100591.28;1753322;82;21167;-82
2021/01/22 04:04:20;;;;;;;19.62;13.00;;;;;;;0.80;100.00;100594.83;1753547;82;21187;-82
2021/01/22 04:07:27;;;;;;;22.07;15.38;;;;;;;0.76;100.00;100592.86;1754788;82;21195;-82
2021/01/22 04:10:34;;;;;;;19.80;12.35;;;;;;;0.70;100.00;100594.61;1754825;82;21274;-82
2021/01/22 04:13:39;;;;;;;24.98;12.05;;;;;;;0.69;100.00;100594.24;1775161;80;21296;-82
2021/01/22 04:16:48;;;;;;;24.02;15.50;;;;;;;0.68;100.00;100589.34;1785516;80;21232;-82
2021/01/22 04:19:53;;;;;;;16.30;11.85;;;;;;;0.70;100.00;100585.19;1785947;80;21775;-82
2021/01/22 04:23:00;;;;;;;21.25;13.80;;;;;;;0.72;100.00;100585.97;1771711;80;21330;-83
2021/01/22 04:26:06;;;;;;;23.00;15.25;;;;;;;0.76;100.00;100586.13;1753918;82;21801;-82
2021/01/22 04:29:12;;;;;;;20.55;13.58;;;;;;;0.82;100.00;100587.53;1753618;82;21766;-82
2021/01/22 04:32:17;;;;;;;27.02;17.50;;;;;;;0.88;100.00;100583.91;1754773;80;21295;-83
2021/01/22 04:35:23;;;;;;;17.95;12.28;;;;;;;0.96;100.00;100582.03;1742903;82;21833;-83
2021/01/22 04:38:27;;;;;;;20.75;14.40;;;;;;;1.02;100.00;100577.06;1740821;82;21177;-82
2021/01/22 04:41:33;;;;;;;30.65;17.62;;;;;;;1.02;100.00;100580.24;1772033;81;21150;-82
2021/01/22 04:44:40;;;;;;;25.60;16.25;;;;;;;1.02;100.00;100584.28;1772124;81;21730;-82
2021/01/22 04:47:47;;;;;;;27.05;17.20;;;;;;;1.04;100.00;100587.75;1771892;81;21277;-83
2021/01/22 04:50:53;;;;;;;31.23;19.62;;;;;;;1.02;100.00;100580.24;1771558;81;21833;-82
2021/01/22 04:53:59;;;;;;;31.77;20.08;;;;;;;1.00;100.00;100582.20;1771212;81;21292;-82
2021/01/22 04:57:05;;;;;;;32.17;17.87;;;;;;;0.98;100.00;100584.12;1770911;81;21158;-82
2021/01/22 05:00:11;;;;;;;36.75;20.57;;;;;;;0.99;100.00;100582.69;1771613;81;21150;-82
2021/01/22 05:03:17;;;;;;;33.50;18.10;;;;;;;1.00;100.00;100591.62;1772109;81;21193;-82
2021/01/22 05:06:23;;;;;;;30.48;18.10;;;;;;;1.03;100.00;100584.66;1767463;81;21718;-82
2021/01/22 05:09:29;;;;;;;29.57;17.92;;;;;;;1.13;100.00;100584.41;1768266;81;21320;-82
2021/01/22 05:12:46;;;;;;;27.42;17.00;;;;;;;1.23;100.00;100583.25;1770730;81;21284;-83
2021/01/22 05:15:53;;;;;;;27.75;17.75;;;;;;;1.30;100.00;100587.22;1771786;81;21213;-82
2021/01/22 05:18:57;;;;;;;31.90;18.92;;;;;;;1.31;100.00;100574.59;1755160;81;21288;-82
2021/01/22 05:22:03;;;;;;;24.37;14.55;;;;;;;1.37;100.00;100576.88;1741576;82;21580;-82
2021/01/22 05:25:08;;;;;;;29.00;17.75;;;;;;;1.48;100.00;100578.30;1744103;81;21774;-82
2021/01/22 05:28:13;;;;;;;28.67;17.00;;;;;;;1.54;100.00;100578.69;1740967;82;21348;-82
2021/01/22 05:31:25;;;;;;;30.00;19.95;;;;;;;1.61;100.00;100589.05;1756409;81;21114;-82
2021/01/22 05:34:32;;;;;;;30.37;16.57;;;;;;;1.65;100.00;100581.12;1764205;79;21818;-81
2021/01/22 05:37:37;;;;;;;30.85;17.67;;;;;;;1.71;100.00;100587.40;1734202;82;21316;-82
2021/01/22 05:40:43;;;;;;;30.30;18.05;;;;;;;1.71;100.00;100590.95;1755292;80;21228;-82
2021/01/22 05:43:50;;;;;;;28.17;18.20;;;;;;;1.72;100.00;100590.47;1748419;82;21196;-82
2021/01/22 05:47:16;;;;;;;32.35;18.07;;;;;;;1.69;100.00;100594.23;1748726;82;21272;-82
2021/01/22 05:50:20;;;;;;;26.55;16.25;;;;;;;1.66;100.00;100593.13;1754130;80;21287;-82
2021/01/22 05:53:26;;;;;;;27.87;16.42;;;;;;;1.65;100.00;100595.45;1752066;80;21316;-82
2021/01/22 05:56:31;;;;;;;30.23;16.90;;;;;;;1.65;100.00;100594.11;1767725;80;21284;-83
2021/01/22 05:59:36;;;;;;;28.55;17.23;;;;;;;1.67;100.00;100595.33;1769530;80;21246;-82
2021/01/22 06:02:43;;;;;;;31.00;18.60;;;;;;;1.67;100.00;100596.19;1772858;80;21207;-82
2021/01/22 06:05:59;;;;;;;26.12;16.95;;;;;;;1.72;100.00;100596.71;1767539;80;21829;-79
2021/01/22 06:09:07;;;;;;;29.90;19.23;;;;;;;1.78;100.00;100590.00;1764747;80;21143;-83
2021/01/22 06:12:15;;;;;;;24.65;16.87;;;;;;;1.83;100.00;100592.36;1760936;79;21169;-82
2021/01/22 06:15:21;;;;;;;27.15;17.82;;;;;;;1.90;100.00;100594.50;1757321;80;21279;-83
2021/01/22 06:18:29;;;;;;;28.73;16.75;;;;;;;1.95;100.00;100586.06;1775892;79;21762;-83
2021/01/22 06:21:42;;;;;;;29.05;19.42;;;;;;;1.96;100.00;100586.43;1765279;79;21820;-84
2021/01/22 06:24:48;;;;;;;29.27;20.23;;;;;;;1.98;100.00;100591.24;1755374;79;21512;-83
2021/01/22 06:27:54;;;;;;;28.17;19.02;;;;;;;2.00;100.00;100591.48;1765968;79;21313;-84
2021/01/22 06:30:59;;;;;;;26.50;17.62;;;;;;;2.06;100.00;100590.16;1764081;80;21804;-82
2021/01/22 06:34:04;;;;;;;34.80;21.68;;;;;;;2.14;100.00;100593.15;1768050;80;21802;-84
2021/01/22 06:37:11;;;;;;;29.35;19.32;;;;;;;2.22;100.00;100583.14;1759180;80;21284;-84
2021/01/22 06:40:19;;;;;;;32.33;19.92;;;;;;;2.28;100.00;100591.62;1764422;79;21248;-78
2021/01/22 06:43:23;;;;;;;26.15;16.87;;;;;;;2.34;100.00;100586.73;1764497;79;21160;-83
2021/01/22 06:46:32;;;;;;;39.95;24.15;;;;;;;2.36;100.00;100575.34;1768920;79;21800;-78
2021/01/22 06:49:41;;;;;;;29.15;18.37;;;;;;;2.35;100.00;100577.64;1741639;81;21406;-84
2021/01/22 06:52:46;;;;;;;37.65;22.90;;;;;;;2.40;100.00;100576.80;1710418;82;21234;-84
2021/01/22 06:56:03;;;;;;;32.90;19.57;;;;;;;2.42;100.00;100585.16;1718781;81;21661;-84
2021/01/22 06:59:41;;;;;;;41.35;22.00;;;;;;;2.49;100.00;100586.44;1717157;81;21303;-83
2021/01/22 07:02:48;;;;;;;39.60;23.52;;;;;;;2.53;100.00;100580.28;1731876;81;21298;-83
2021/01/22 07:05:54;;;;;;;31.90;19.17;;;;;;;2.57;100.00;100580.42;1708575;83;21312;-83
2021/01/22 07:09:04;;;;;;;39.48;20.50;;;;;;;2.64;100.00;100578.98;1706324;82;21342;-84
2021/01/22 07:12:14;;;;;;;40.60;20.17;;;;;;;2.58;100.00;100572.69;1706096;82;21287;-79
2021/01/22 07:15:33;;;;;;;46.25;23.25;;;;;;;2.58;100.00;100576.73;1715712;82;21149;-78
2021/01/22 07:18:43;;;;;;;35.98;17.85;;;;;;;2.57;100.00;100576.37;1699754;82;21296;-79
2021/01/22 07:21:51;;;;;;;42.45;19.15;;;;;;;2.56;100.00;100566.55;1702546;82;21188;-79
2021/01/22 07:25:05;;;;;;;31.40;16.00;;;;;;;2.59;100.00;100570.84;1702312;84;21599;-79
2021/01/22 07:28:30;;;;;;;31.48;18.15;;;;;;;2.59;100.00;100570.84;1700703;82;21273;-79
2021/01/22 07:32:03;;;;;;;37.83;19.80;;;;;;;2.62;100.00;100571.96;1709600;82;21263;-79
2021/01/22 07:35:09;;;;;;;49.13;22.20;;;;;;;2.69;100.00;100568.68;1710823;82;21323;-80
2021/01/22 07:38:15;;;;;;;41.92;21.75;;;;;;;2.79;100.00;100574.22;1711468;83;21785;-80
2021/01/22 07:41:21;;;;;;;39.80;17.35;;;;;;;2.83;100.00;100568.09;1705670;82;21260;-80
2021/01/22 07:44:35;;;;;;;47.05;22.07;;;;;;;2.89;100.00;100563.55;1704922;82;21367;-80
2021/01/22 07:47:42;;;;;;;39.33;19.30;;;;;;;2.98;100.00;100565.53;1701463;82;21172;-81
2021/01/22 07:50:48;;;;;;;49.23;22.87;;;;;;;3.12;100.00;100565.29;1704012;82;21854;-80
2021/01/22 07:53:56;;;;;;;55.48;24.98;;;;;;;3.20;99.78;100567.36;1711305;82;21723;-80
2021/01/22 07:57:03;;;;;;;51.48;24.30;;;;;;;3.24;99.32;100571.05;1709150;82;22099;-80
2021/01/22 08:00:14;;;;;;;38.15;18.10;;;;;;;3.28;98.92;100563.55;1697093;84;21204;-80
2021/01/22 08:03:20;;;;;;;40.10;20.00;;;;;;;3.38;98.60;100556.42;1729783;81;21168;-80
2021/01/22 08:06:26;;;;;;;42.08;20.70;;;;;;;3.45;98.13;100560.86;1704528;82;21197;-85
2021/01/22 08:09:32;;;;;;;34.18;17.45;;;;;;;3.49;97.65;100560.98;1712259;81;21616;-85
2021/01/22 08:12:38;;;;;;;30.72;15.93;;;;;;;3.53;97.15;100557.05;1712520;81;21200;-85
2021/01/22 08:15:48;;;;;;;31.75;17.07;;;;;;;3.59;96.80;100551.98;1715317;81;21280;-80
2021/01/22 08:18:54;;;;;;;46.00;18.67;;;;;;;3.69;96.42;100554.79;1711141;83;21840;-80
2021/01/22 08:21:59;;;;;;;33.48;15.93;;;;;;;3.74;95.90;100550.34;1709838;83;21291;-80
2021/01/22 08:25:05;;;;;;;32.88;16.62;;;;;;;3.80;95.36;100552.05;1713666;81;21248;-79
2021/01/22 08:28:14;;;;;;;35.60;16.62;;;;;;;3.88;94.80;100550.56;1712507;81;21358;-80
2021/01/22 08:31:19;;;;;;;30.60;16.45;;;;;;;3.87;93.84;100542.09;1716894;81;21256;-80
2021/01/22 08:34:24;;;;;;;29.65;15.28;;;;;;;3.97;93.40;100542.53;1715888;83;21484;-84
2021/01/22 08:37:30;;;;;;;36.23;16.17;;;;;;;4.07;92.84;100539.41;1715891;81;21169;-79
2021/01/22 08:40:47;;;;;;;38.70;17.40;;;;;;;4.13;92.35;100536.68;1673796;83;21296;-79
2021/01/22 08:43:59;;;;;;;34.92;18.27;;;;;;;4.21;91.99;100531.48;1672737;85;21283;-79
2021/01/22 08:47:04;;;;;;;35.23;17.42;;;;;;;4.30;91.53;100537.47;1672596;85;21153;-78
2021/01/22 08:50:10;;;;;;;37.75;18.25;;;;;;;4.38;91.03;100534.12;1677864;83;21200;-78
2021/01/22 08:53:17;;;;;;;39.73;20.45;;;;;;;4.35;90.46;100527.10;1675351;85;21295;-78
2021/01/22 08:56:25;;;;;;;34.33;18.05;;;;;;;4.27;90.13;100522.83;1674225;85;21272;-78
2021/01/22 08:59:30;;;;;;;40.05;18.42;;;;;;;4.23;90.04;100524.08;1674393;83;21320;-79
2021/01/22 09:02:56;;;;;;;38.23;18.52;;;;;;;4.22;90.08;100525.07;1677214;83;21187;-79
2021/01/22 09:06:03;;;;;;;44.60;20.62;;;;;;;4.33;90.50;100519.63;1671968;85;21910;-79
2021/01/22 09:09:11;;;;;;;38.80;16.90;;;;;;;4.42;89.97;100521.16;1676934;85;21869;-79
2021/01/22 09:12:30;;;;;;;31.87;16.27;;;;;;;4.43;89.59;100519.69;1677182;83;21259;-79
2021/01/22 09:15:35;;;;;;;29.30;14.73;;;;;;;4.41;89.25;100518.94;1673064;83;21331;-79
2021/01/22 09:18:40;;;;;;;25.20;13.38;;;;;;;4.31;89.02;100509.39;1680686;83;21235;-79
2021/01/22 09:22:02;;;;;;;26.65;14.05;;;;;;;4.31;88.97;100505.83;1680647;84;21153;-79
2021/01/22 09:25:11;;;;;;;26.85;13.10;;;;;;;4.26;88.71;100507.58;1678238;83;21276;-79
2021/01/22 09:28:17;;;;;;;25.02;12.93;;;;;;;4.25;88.60;100505.02;1677112;85;21292;-80
2021/01/22 09:31:23;;;;;;;24.05;13.25;;;;;;;4.26;88.53;100499.95;1682086;83;21312;-80
2021/01/22 09:34:29;;;;;;;28.12;13.53;;;;;;;4.28;88.24;100496.14;1676157;83;21213;-80
2021/01/22 09:37:35;;;;;;;29.02;14.43;;;;;;;4.28;88.00;100499.31;1676834;83;21314;-80
2021/01/22 09:40:41;;;;;;;24.87;12.85;;;;;;;4.25;87.73;100491.47;1708145;81;21305;-80
2021/01/22 09:43:47;;;;;;;30.72;14.13;;;;;;;4.24;87.62;100491.97;1717826;82;21279;-80
2021/01/22 09:46:52;;;;;;;24.47;12.07;;;;;;;4.25;87.50;100492.33;1712595;82;21790;-80
2021/01/22 09:49:59;;;;;;;22.67;12.65;;;;;;;4.28;87.44;100493.43;1721721;82;21185;-80
2021/01/22 09:53:05;;;;;;;23.30;12.70;;;;;;;4.33;87.45;100487.13;1719036;82;21161;-80
2021/01/22 09:56:14;;;;;;;26.80;13.70;;;;;;;4.44;87.26;100493.45;1722209;82;21293;-81
2021/01/22 09:59:19;;;;;;;22.07;11.43;;;;;;;4.48;86.82;100485.44;1716864;82;21403;-81
2021/01/22 10:02:27;;;;;;;22.87;12.73;;;;;;;4.54;86.69;100481.68;1724868;82;21327;-81
2021/01/22 10:05:32;;;;;;;23.42;11.28;;;;;;;4.64;86.35;100480.88;1716091;82;21299;-81
2021/01/22 10:08:38;;;;;;;21.82;11.03;;;;;;;4.69;85.91;100475.91;1734094;82;21315;-81
2021/01/22 10:11:46;;;;;;;23.50;11.83;;;;;;;4.64;85.31;100474.11;1718774;82;21815;-81
2021/01/22 10:14:51;;;;;;;22.93;11.22;;;;;;;4.58;85.28;100471.45;1724196;82;21185;-81
2021/01/22 10:17:57;;;;;;;22.45;12.18;;;;;;;4.52;85.31;100466.57;1716398;82;21597;-81
2021/01/22 10:21:02;;;;;;;24.07;12.35;;;;;;;4.50;85.33;100464.47;1718992;82;21162;-80
2021/01/22 10:24:08;;;;;;;26.35;13.35;;;;;;;4.49;85.31;100462.77;1720029;82;21305;-81
2021/01/22 10:27:14;;;;;;;27.32;11.68;;;;;;;4.46;85.24;100453.54;1697424;84;21255;-81
2021/01/22 10:30:21;;;;;;;22.40;11.63;;;;;;;4.35;85.16;100452.62;1718055;81;21373;-80
2021/01/22 10:33:27;;;;;;;23.05;11.65;;;;;;;4.28;85.34;100446.05;1696789;83;21323;-80
2021/01/22 10:36:33;;;;;;;20.05;10.15;;;;;;;4.23;85.40;100440.14;1696564;83;21855;-81
2021/01/22 10:39:39;;;;;;;20.75;11.10;;;;;;;4.15;85.63;100438.61;1695285;83;21353;-81
2021/01/22 10:42:43;;;;;;;24.10;11.18;;;;;;;4.16;85.81;100432.70;1699199;83;21320;-79
2021/01/22 10:45:49;;;;;;;26.33;11.28;;;;;;;4.15;85.90;100435.05;1701621;83;21310;-79
2021/01/22 10:48:55;;;;;;;20.97;10.75;;;;;;;4.12;85.92;100422.62;1698208;83;21306;-81
2021/01/22 10:52:00;;;;;;;28.45;12.30;;;;;;;4.03;85.84;100416.14;1718974;82;21161;-81
2021/01/22 10:55:06;;;;;;;22.17;11.15;;;;;;;3.96;86.04;100406.00;1708461;83;21815;-81
2021/01/22 10:58:11;;;;;;;23.32;11.22;;;;;;;3.90;86.41;100414.62;1711319;83;21731;-81
2021/01/22 11:01:16;;;;;;;22.58;12.23;;;;;;;3.89;86.79;100404.78;1719725;82;21365;-80
2021/01/22 11:04:23;;;;;;;25.57;11.18;;;;;;;3.95;86.91;100406.96;1718539;82;21343;-80
2021/01/22 11:07:27;;;;;;;19.35;10.28;;;;;;;3.96;86.70;100394.67;1718704;82;21831;-81
2021/01/22 11:10:32;;;;;;;22.37;12.60;;;;;;;3.96;86.69;100389.76;1716188;82;21192;-81
2021/01/22 11:13:37;;;;;;;26.07;12.03;;;;;;;3.93;86.57;100390.01;1718835;82;21224;-81
2021/01/22 11:16:43;;;;;;;20.25;11.03;;;;;;;3.88;86.61;100387.70;1715133;82;21173;-81
2021/01/22 11:19:48;;;;;;;23.22;11.65;;;;;;;3.88;86.67;100384.14;1717152;82;21928;-81
2021/01/22 11:22:54;;;;;;;20.15;12.63;;;;;;;3.85;86.81;100392.86;1705833;82;21283;-81
2021/01/22 11:25:58;;;;;;;22.67;11.08;;;;;;;3.82;87.01;100392.29;1721164;81;21309;-81
2021/01/22 11:29:04;;;;;;;28.62;13.08;;;;;;;3.89;87.17;100384.49;1717996;81;21274;-81
2021/01/22 11:32:09;;;;;;;25.27;11.65;;;;;;;3.94;87.03;100374.98;1700184;82;21903;-81
2021/01/22 11:35:15;;;;;;;25.05;12.25;;;;;;;3.95;86.81;100378.55;1690835;84;21276;-78
2021/01/22 11:38:20;;;;;;;22.42;12.68;;;;;;;3.89;86.70;100372.31;1700418;83;21292;-79
2021/01/22 11:41:26;;;;;;;26.77;13.10;;;;;;;3.80;86.87;100370.75;1697039;83;21315;-80
2021/01/22 11:44:33;;;;;;;26.33;13.32;;;;;;;3.76;87.12;100368.44;1703138;82;21348;-80
2021/01/22 11:47:39;;;;;;;23.85;10.72;;;;;;;3.70;87.31;100361.72;1703701;83;21759;-81
2021/01/22 11:50:43;;;;;;;22.25;12.03;;;;;;;3.64;87.62;100367.66;1712521;83;21269;-81
2021/01/22 11:53:50;;;;;;;19.30;11.33;;;;;;;3.62;87.89;100360.64;1715637;83;21315;-82
2021/01/22 11:56:55;;;;;;;20.02;10.80;;;;;;;3.63;88.08;100359.69;1725714;82;21843;-82
2021/01/22 12:00:02;;;;;;;21.87;11.78;;;;;;;3.64;88.11;100349.22;1705152;83;21169;-81
2021/01/22 12:03:07;;;;;;;23.67;11.85;;;;;;;3.63;88.19;100357.83;1700338;83;21400;-83
2021/01/22 12:06:12;;;;;;;24.15;12.05;;;;;;;3.62;88.25;100353.38;1705312;82;21178;-82
2021/01/22 12:09:18;;;;;;;20.57;12.75;;;;;;;3.61;88.34;100351.67;1714532;82;21299;-84
2021/01/22 12:12:23;;;;;;;23.67;12.03;;;;;;;3.62;88.42;100352.03;1721762;82;21860;-83
2021/01/22 12:15:29;;;;;;;21.52;11.88;;;;;;;3.61;88.48;100348.97;1709291;83;21354;-82
2021/01/22 12:18:35;;;;;;;29.00;12.85;;;;;;;3.61;88.63;100344.91;1706603;83;21808;-81
2021/01/22 12:21:40;;;;;;;20.43;9.88;;;;;;;3.63;88.70;100345.66;1709804;82;21535;-85
2021/01/22 12:24:46;;;;;;;34.75;11.30;;;;;;;3.64;88.78;100346.52;1715692;82;21266;-85
2021/01/22 12:27:51;;;;;;;24.63;12.90;;;;;;;3.64;88.72;100347.37;1715563;83;21302;-85
2021/01/22 12:30:55;;;;;;;22.27;11.97;;;;;;;3.63;88.68;100340.25;1704583;83;21166;-84
2021/01/22 12:34:01;;;;;;;23.07;11.43;;;;;;;3.60;88.76;100341.85;1728181;82;21184;-82
2021/01/22 12:37:07;;;;;;;21.00;11.70;;;;;;;3.58;88.95;100343.84;1706717;83;22023;-84
2021/01/22 12:40:13;;;;;;;26.93;11.93;;;;;;;3.61;89.13;100348.97;1714610;83;21294;-81
2021/01/22 12:43:20;;;;;;;28.47;12.88;;;;;;;3.59;89.25;100344.20;1714606;82;22178;-82
2021/01/22 12:46:26;;;;;;;23.87;12.43;;;;;;;3.58;89.48;100341.99;1714202;82;21841;-81
2021/01/22 12:49:33;;;;;;;22.02;13.08;;;;;;;3.61;89.67;100346.77;1716641;82;21264;-85
2021/01/22 12:52:38;;;;;;;28.87;12.95;;;;;;;3.62;89.76;100345.77;1714596;82;21307;-82
2021/01/22 12:55:45;;;;;;;25.90;12.73;;;;;;;3.66;89.94;100356.20;1720039;82;21765;-85
2021/01/22 12:58:50;;;;;;;21.65;11.20;;;;;;;3.68;89.87;100353.38;1715952;82;21367;-82
2021/01/22 13:01:56;;;;;;;20.37;11.22;;;;;;;3.65;89.91;100357.19;1717148;82;21305;-85
2021/01/22 13:05:02;;;;;;;22.52;12.20;;;;;;;3.62;90.01;100353.88;1719694;82;21165;-85
2021/01/22 13:08:07;;;;;;;27.02;13.60;;;;;;;3.60;90.17;100349.97;1685625;83;21294;-81
2021/01/22 13:11:13;;;;;;;25.17;13.90;;;;;;;3.60;90.35;100347.27;1721780;83;21347;-85
2021/01/22 13:14:19;;;;;;;27.65;14.38;;;;;;;3.60;90.44;100348.61;1722754;81;21210;-83
2021/01/22 13:17:24;;;;;;;24.60;13.03;;;;;;;3.59;90.55;100347.77;1714779;82;21848;-82
2021/01/22 13:20:31;;;;;;;26.60;13.08;;;;;;;3.58;90.74;100348.76;1698249;84;21326;-81
2021/01/22 13:23:35;;;;;;;27.50;13.83;;;;;;;3.59;90.98;100340.14;1703970;83;21166;-82
2021/01/22 13:26:42;;;;;;;29.98;14.18;;;;;;;3.61;91.12;100346.27;1709633;83;21814;-82
2021/01/22 13:29:48;;;;;;;24.10;12.45;;;;;;;3.63;91.24;100341.60;1715740;83;21324;-82
2021/01/22 13:32:55;;;;;;;23.42;14.07;;;;;;;3.64;91.32;100341.95;1715348;83;21271;-82
2021/01/22 13:36:01;;;;;;;25.50;14.80;;;;;;;3.64;91.32;100339.25;1718052;83;21157;-84
2021/01/22 13:39:06;;;;;;;29.48;16.77;;;;;;;3.66;91.37;100337.26;1712046;83;21729;-84
2021/01/22 13:42:12;;;;;;;35.23;16.05;;;;;;;3.65;91.35;100342.31;1715499;83;21318;-82
2021/01/22 13:45:18;;;;;;;29.40;14.90;;;;;;;3.64;91.46;100343.31;1707425;83;21742;-82
2021/01/22 13:48:24;;;;;;;27.90;12.63;;;;;;;3.62;91.60;100342.56;1723474;82;21308;-82
2021/01/22 13:51:30;;;;;;;23.75;12.37;;;;;;;3.61;91.75;100335.45;1722849;82;21813;-81
2021/01/22 13:54:35;;;;;;;24.25;11.63;;;;;;;3.56;91.92;100341.25;1719962;82;21265;-81
2021/01/22 13:57:41;;;;;;;26.27;14.75;;;;;;;3.52;92.20;100341.14;1716086;82;21281;-82
2021/01/22 14:00:47;;;;;;;25.57;13.50;;;;;;;3.49;92.54;100339.22;1714900;82;21226;-81
2021/01/22 14:03:53;;;;;;;26.05;12.73;;;;;;;3.47;92.81;100339.82;1722405;82;21202;-81
2021/01/22 14:06:59;;;;;;;22.77;11.78;;;;;;;3.49;93.07;100350.03;1721422;82;21353;-81
2021/01/22 14:10:04;;;;;;;28.65;14.13;;;;;;;3.53;93.23;100340.67;1722774;82;21359;-81
2021/01/22 14:13:11;;;;;;;21.77;12.33;;;;;;;3.53;93.27;100336.13;1721887;82;21212;-81